sensor_id;sensor_type;location;lat;lon;timestamp;pressure;altitude;pressure_sealevel;temperature;humidity
46946;BME280;32679;40.810;14.498;2022-09-17T00:01:16;99267.41;;;21.87;100.00
46946;BME280;32679;40.810;14.498;2022-09-17T00:03:42;99273.91;;;21.97;100.00
46946;BME280;32679;40.810;14.498;2022-09-17T00:06:08;99265.56;;;21.93;100.00
46946;BME280;32679;40.810;14.498;2022-09-17T00:08:34;99247.84;;;22.02;100.00
46946;BME280;32679;40.810;14.498;2022-09-17T00:11:08;99249.75;;;22.05;100.00
46946;BME280;32679;40.810;14.498;2022-09-17T00:13:34;99258.69;;;22.04;100.00
46946;BME280;32679;40.810;14.498;2022-09-17T00:15:59;99268.53;;;22.12;100.00
46946;BME280;32679;40.810;14.498;2022-09-17T00:18:24;99258.31;;;22.14;100.00
46946;BME280;32679;40.810;14.498;2022-09-17T00:20:50;99245.00;;;22.02;100.00
46946;BME280;32679;40.810;14.498;2022-09-17T00:23:16;99241.47;;;22.11;100.00
46946;BME280;32679;40.810;14.498;2022-09-17T00:25:42;99238.06;;;22.25;100.00
46946;BME280;32679;40.810;14.498;2022-09-17T00:28:08;99213.69;;;22.37;98.46
46946;BME280;32679;40.810;14.498;2022-09-17T00:30:34;99205.69;;;22.44;98.72
46946;BME280;32679;40.810;14.498;2022-09-17T00:32:59;99187.56;;;22.42;98.98
46946;BME280;32679;40.810;14.498;2022-09-17T00:35:24;99178.09;;;22.27;99.98
46946;BME280;32679;40.810;14.498;2022-09-17T00:37:50;99159.69;;;22.31;97.52
46946;BME280;32679;40.810;14.498;2022-09-17T00:40:16;99143.97;;;22.39;97.15
46946;BME280;32679;40.810;14.498;2022-09-17T00:42:41;99141.28;;;22.36;97.33
46946;BME280;32679;40.810;14.498;2022-09-17T00:45:07;99139.84;;;22.31;98.37
46946;BME280;32679;40.810;14.498;2022-09-17T00:50:09;99153.72;;;22.47;99.35
46946;BME280;32679;40.810;14.498;2022-09-17T00:52:40;99131.41;;;22.49;98.03
46946;BME280;32679;40.810;14.498;2022-09-17T00:55:11;99129.19;;;22.44;99.03
46946;BME280;32679;40.810;14.498;2022-09-17T00:57:38;99100.97;;;22.41;100.00
46946;BME280;32679;40.810;14.498;2022-09-17T01:00:04;99097.69;;;22.52;99.22
46946;BME280;32679;40.810;14.498;2022-09-17T01:02:31;99103.81;;;22.41;99.83
46946;BME280;32679;40.810;14.498;2022-09-17T01:04:56;99102.88;;;22.35;99.85
46946;BME280;32679;40.810;14.498;2022-09-17T01:17:46;99072.81;;;22.56;100.00
46946;BME280;32679;40.810;14.498;2022-09-17T01:28:13;99049.06;;;23.50;100.00
46946;BME280;32679;40.810;14.498;2022-09-17T01:30:53;99056.88;;;23.74;100.00
46946;BME280;32679;40.810;14.498;2022-09-17T01:33:24;99055.34;;;23.97;100.00
46946;BME280;32679;40.810;14.498;2022-09-17T01:38:36;99083.75;;;23.97;100.00
46946;BME280;32679;40.810;14.498;2022-09-17T01:43:50;99030.22;;;24.04;100.00
46946;BME280;32679;40.810;14.498;2022-09-17T01:46:21;99042.22;;;23.99;100.00
46946;BME280;32679;40.810;14.498;2022-09-17T01:48:49;99064.00;;;24.02;100.00
46946;BME280;32679;40.810;14.498;2022-09-17T01:51:21;99078.34;;;24.08;100.00
46946;BME280;32679;40.810;14.498;2022-09-17T01:56:15;99043.66;;;23.62;100.00
46946;BME280;32679;40.810;14.498;2022-09-17T01:58:45;99051.50;;;23.34;93.89
46946;BME280;32679;40.810;14.498;2022-09-17T02:01:12;99091.38;;;23.39;89.01
46946;BME280;32679;40.810;14.498;2022-09-17T02:03:41;99064.28;;;23.20;86.85
46946;BME280;32679;40.810;14.498;2022-09-17T02:08:53;99045.88;;;22.23;73.11
46946;BME280;32679;40.810;14.498;2022-09-17T02:11:20;99026.59;;;21.91;76.05
46946;BME280;32679;40.810;14.498;2022-09-17T02:14:29;99050.59;;;21.77;77.68
46946;BME280;32679;40.810;14.498;2022-09-17T02:16:35;99077.34;;;21.76;79.55
46946;BME280;32679;40.810;14.498;2022-09-17T02:21:43;99079.28;;;21.97;88.82
46946;BME280;32679;40.810;14.498;2022-09-17T02:24:22;99098.50;;;22.03;92.27
46946;BME280;32679;40.810;14.498;2022-09-17T02:27:10;99109.38;;;22.04;95.18
46946;BME280;32679;40.810;14.498;2022-09-17T02:29:38;99121.78;;;21.97;95.30
46946;BME280;32679;40.810;14.498;2022-09-17T02:32:04;99123.97;;;21.93;96.67
46946;BME280;32679;40.810;14.498;2022-09-17T02:34:29;99146.91;;;21.86;96.06
46946;BME280;32679;40.810;14.498;2022-09-17T02:36:55;99158.16;;;21.68;97.87
46946;BME280;32679;40.810;14.498;2022-09-17T02:39:21;99163.69;;;21.50;99.71
46946;BME280;32679;40.810;14.498;2022-09-17T02:42:10;99182.25;;;21.51;100.00
46946;BME280;32679;40.810;14.498;2022-09-17T02:44:48;99175.88;;;21.37;100.00
46946;BME280;32679;40.810;14.498;2022-09-17T02:52:23;99197.13;;;21.42;100.00
46946;BME280;32679;40.810;14.498;2022-09-17T02:55:10;99184.63;;;21.52;100.00
46946;BME280;32679;40.810;14.498;2022-09-17T02:57:57;99178.44;;;21.44;98.99
46946;BME280;32679;40.810;14.498;2022-09-17T03:00:24;99186.31;;;21.28;97.27
46946;BME280;32679;40.810;14.498;2022-09-17T03:02:57;99168.47;;;21.18;98.21
46946;BME280;32679;40.810;14.498;2022-09-17T03:05:24;99168.47;;;21.18;98.09
46946;BME280;32679;40.810;14.498;2022-09-17T03:07:50;99175.38;;;21.17;98.84
46946;BME280;32679;40.810;14.498;2022-09-17T03:10:16;99177.53;;;21.13;98.12
46946;BME280;32679;40.810;14.498;2022-09-17T03:12:41;99182.53;;;21.09;99.57
46946;BME280;32679;40.810;14.498;2022-09-17T03:15:07;99196.34;;;21.07;99.76
46946;BME280;32679;40.810;14.498;2022-09-17T03:17:32;99194.41;;;21.04;100.00
46946;BME280;32679;40.810;14.498;2022-09-17T03:19:58;99184.03;;;21.01;98.10
46946;BME280;32679;40.810;14.498;2022-09-17T03:22:23;99178.38;;;21.01;96.60
46946;BME280;32679;40.810;14.498;2022-09-17T03:24:48;99154.19;;;21.00;96.27
46946;BME280;32679;40.810;14.498;2022-09-17T03:27:14;99151.81;;;20.98;95.88
46946;BME280;32679;40.810;14.498;2022-09-17T03:29:39;99158.91;;;21.03;97.95
46946;BME280;32679;40.810;14.498;2022-09-17T03:32:05;99166.25;;;20.78;100.00
46946;BME280;32679;40.810;14.498;2022-09-17T03:34:30;99164.13;;;20.70;100.00
46946;BME280;32679;40.810;14.498;2022-09-17T03:36:55;99156.13;;;20.55;100.00
46946;BME280;32679;40.810;14.498;2022-09-17T03:39:21;99152.50;;;20.55;100.00
46946;BME280;32679;40.810;14.498;2022-09-17T03:41:46;99161.34;;;20.57;100.00
46946;BME280;32679;40.810;14.498;2022-09-17T03:44:11;99167.41;;;20.68;100.00
46946;BME280;32679;40.810;14.498;2022-09-17T03:46:37;99162.84;;;20.83;100.00
46946;BME280;32679;40.810;14.498;2022-09-17T03:49:02;99159.94;;;20.74;100.00
46946;BME280;32679;40.810;14.498;2022-09-17T03:51:28;99159.75;;;20.56;100.00
46946;BME280;32679;40.810;14.498;2022-09-17T03:53:53;99166.53;;;20.46;100.00
46946;BME280;32679;40.810;14.498;2022-09-17T03:56:18;99160.78;;;20.36;100.00
46946;BME280;32679;40.810;14.498;2022-09-17T03:58:44;99159.00;;;20.30;100.00
46946;BME280;32679;40.810;14.498;2022-09-17T04:01:09;99157.28;;;20.32;100.00
46946;BME280;32679;40.810;14.498;2022-09-17T04:03:34;99154.34;;;20.23;100.00
46946;BME280;32679;40.810;14.498;2022-09-17T04:06:00;99157.75;;;20.31;100.00
46946;BME280;32679;40.810;14.498;2022-09-17T04:08:25;99164.16;;;20.19;100.00
46946;BME280;32679;40.810;14.498;2022-09-17T04:10:50;99165.63;;;20.23;100.00
46946;BME280;32679;40.810;14.498;2022-09-17T04:13:16;99164.16;;;20.19;100.00
46946;BME280;32679;40.810;14.498;2022-09-17T04:15:42;99162.94;;;20.07;100.00
46946;BME280;32679;40.810;14.498;2022-09-17T04:18:08;99156.28;;;20.01;100.00
46946;BME280;32679;40.810;14.498;2022-09-17T04:20:34;99147.25;;;20.06;100.00
46946;BME280;32679;40.810;14.498;2022-09-17T04:22:59;99153.00;;;20.02;100.00
46946;BME280;32679;40.810;14.498;2022-09-17T04:25:25;99153.13;;;19.99;100.00
46946;BME280;32679;40.810;14.498;2022-09-17T04:27:50;99155.03;;;20.02;100.00
46946;BME280;32679;40.810;14.498;2022-09-17T04:30:15;99156.94;;;20.18;100.00
46946;BME280;32679;40.810;14.498;2022-09-17T04:32:44;99155.38;;;20.17;100.00
46946;BME280;32679;40.810;14.498;2022-09-17T04:35:10;99149.41;;;20.14;100.00
46946;BME280;32679;40.810;14.498;2022-09-17T04:37:36;99144.19;;;20.13;100.00
46946;BME280;32679;40.810;14.498;2022-09-17T04:40:01;99136.63;;;20.10;100.00
46946;BME280;32679;40.810;14.498;2022-09-17T04:42:27;99139.69;;;20.15;100.00
46946;BME280;32679;40.810;14.498;2022-09-17T04:44:52;99142.28;;;20.10;100.00
46946;BME280;32679;40.810;14.498;2022-09-17T04:47:17;99135.28;;;20.02;100.00
46946;BME280;32679;40.810;14.498;2022-09-17T04:49:43;99140.16;;;20.14;100.00
46946;BME280;32679;40.810;14.498;2022-09-17T04:52:08;99129.50;;;20.18;100.00
46946;BME280;32679;40.810;14.498;2022-09-17T04:54:33;99140.56;;;20.25;100.00
46946;BME280;32679;40.810;14.498;2022-09-17T04:56:59;99132.28;;;20.44;100.00
46946;BME280;32679;40.810;14.498;2022-09-17T04:59:24;99125.38;;;20.45;100.00
46946;BME280;32679;40.810;14.498;2022-09-17T05:01:49;99118.84;;;20.48;100.00
46946;BME280;32679;40.810;14.498;2022-09-17T05:04:15;99125.03;;;20.55;100.00
46946;BME280;32679;40.810;14.498;2022-09-17T05:06:40;99134.66;;;20.58;100.00
46946;BME280;32679;40.810;14.498;2022-09-17T05:09:06;99123.25;;;20.61;100.00
46946;BME280;32679;40.810;14.498;2022-09-17T05:11:31;99136.59;;;20.48;100.00
46946;BME280;32679;40.810;14.498;2022-09-17T05:13:56;99136.69;;;20.45;100.00
46946;BME280;32679;40.810;14.498;2022-09-17T05:16:22;99139.63;;;20.54;100.00
46946;BME280;32679;40.810;14.498;2022-09-17T05:18:47;99113.50;;;20.62;100.00
46946;BME280;32679;40.810;14.498;2022-09-17T05:21:13;99110.13;;;20.89;100.00
46946;BME280;32679;40.810;14.498;2022-09-17T05:23:39;99110.38;;;21.48;100.00
46946;BME280;32679;40.810;14.498;2022-09-17T05:26:04;99107.09;;;21.50;97.90
46946;BME280;32679;40.810;14.498;2022-09-17T05:28:29;99115.19;;;21.38;95.16
46946;BME280;32679;40.810;14.498;2022-09-17T05:30:57;99124.06;;;21.50;94.52
46946;BME280;32679;40.810;14.498;2022-09-17T05:33:23;99109.97;;;21.59;92.68
46946;BME280;32679;40.810;14.498;2022-09-17T05:35:48;99105.56;;;21.58;92.52
46946;BME280;32679;40.810;14.498;2022-09-17T05:38:14;99109.91;;;21.50;91.78
46946;BME280;32679;40.810;14.498;2022-09-17T05:40:39;99108.47;;;21.45;91.77
46946;BME280;32679;40.810;14.498;2022-09-17T05:43:05;99110.22;;;21.52;91.18
46946;BME280;32679;40.810;14.498;2022-09-17T05:45:34;99123.78;;;21.57;90.42
46946;BME280;32679;40.810;14.498;2022-09-17T05:48:01;99107.47;;;21.61;90.73
46946;BME280;32679;40.810;14.498;2022-09-17T05:50:26;99113.53;;;21.81;89.75
46946;BME280;32679;40.810;14.498;2022-09-17T05:52:53;99117.97;;;22.22;87.68
46946;BME280;32679;40.810;14.498;2022-09-17T05:55:19;99118.50;;;22.76;85.14
46946;BME280;32679;40.810;14.498;2022-09-17T05:57:44;99117.56;;;23.25;82.61
46946;BME280;32679;40.810;14.498;2022-09-17T06:00:10;99123.13;;;23.80;78.47
46946;BME280;32679;40.810;14.498;2022-09-17T06:02:36;99121.38;;;24.16;76.00
46946;BME280;32679;40.810;14.498;2022-09-17T06:05:02;99121.53;;;24.93;72.69
46946;BME280;32679;40.810;14.498;2022-09-17T06:07:28;99133.38;;;25.45;71.39
46946;BME280;32679;40.810;14.498;2022-09-17T06:09:53;99132.81;;;25.41;70.39
46946;BME280;32679;40.810;14.498;2022-09-17T06:12:18;99132.44;;;26.28;68.10
46946;BME280;32679;40.810;14.498;2022-09-17T06:14:44;99125.22;;;26.88;65.55
46946;BME280;32679;40.810;14.498;2022-09-17T06:17:09;99128.66;;;27.12;63.81
46946;BME280;32679;40.810;14.498;2022-09-17T06:19:34;99119.13;;;27.21;64.14
46946;BME280;32679;40.810;14.498;2022-09-17T06:22:00;99123.63;;;27.28;63.31
46946;BME280;32679;40.810;14.498;2022-09-17T06:24:26;99112.41;;;27.50;63.22
46946;BME280;32679;40.810;14.498;2022-09-17T06:26:52;99114.66;;;27.14;63.63
46946;BME280;32679;40.810;14.498;2022-09-17T06:29:17;99114.84;;;27.89;62.20
46946;BME280;32679;40.810;14.498;2022-09-17T06:31:42;99114.03;;;27.31;63.48
46946;BME280;32679;40.810;14.498;2022-09-17T06:34:08;99100.94;;;26.98;65.03
46946;BME280;32679;40.810;14.498;2022-09-17T06:36:34;99103.94;;;26.89;65.79
46946;BME280;32679;40.810;14.498;2022-09-17T06:38:59;99086.34;;;26.90;65.71
46946;BME280;32679;40.810;14.498;2022-09-17T06:41:24;99087.97;;;27.18;64.54
46946;BME280;32679;40.810;14.498;2022-09-17T06:43:51;99087.97;;;27.18;65.10
46946;BME280;32679;40.810;14.498;2022-09-17T06:46:17;99088.50;;;27.22;64.34
46946;BME280;32679;40.810;14.498;2022-09-17T06:48:42;99081.25;;;27.00;64.35
46946;BME280;32679;40.810;14.498;2022-09-17T06:51:09;99079.69;;;26.38;66.95
46946;BME280;32679;40.810;14.498;2022-09-17T06:53:34;99072.69;;;26.19;68.28
46946;BME280;32679;40.810;14.498;2022-09-17T06:56:01;99070.84;;;26.16;69.83
46946;BME280;32679;40.810;14.498;2022-09-17T06:58:27;99065.97;;;26.01;69.50
46946;BME280;32679;40.810;14.498;2022-09-17T07:00:56;99065.97;;;26.57;65.92
46946;BME280;32679;40.810;14.498;2022-09-17T07:03:22;99073.16;;;26.73;66.96
46946;BME280;32679;40.810;14.498;2022-09-17T07:05:47;99077.06;;;27.22;66.33
46946;BME280;32679;40.810;14.498;2022-09-17T07:08:13;99073.94;;;27.20;65.94
46946;BME280;32679;40.810;14.498;2022-09-17T07:10:38;99071.28;;;26.90;66.74
46946;BME280;32679;40.810;14.498;2022-09-17T07:13:03;99069.75;;;26.69;66.62
46946;BME280;32679;40.810;14.498;2022-09-17T07:15:29;99074.84;;;27.31;64.80
46946;BME280;32679;40.810;14.498;2022-09-17T07:17:54;99076.19;;;27.36;64.12
46946;BME280;32679;40.810;14.498;2022-09-17T07:20:19;99068.28;;;27.51;63.71
46946;BME280;32679;40.810;14.498;2022-09-17T07:22:45;99055.84;;;27.54;60.70
46946;BME280;32679;40.810;14.498;2022-09-17T07:25:10;99050.22;;;27.65;60.20
46946;BME280;32679;40.810;14.498;2022-09-17T07:27:36;99052.88;;;27.11;62.28
46946;BME280;32679;40.810;14.498;2022-09-17T07:30:02;99064.44;;;26.82;64.03
46946;BME280;32679;40.810;14.498;2022-09-17T07:32:28;99064.81;;;26.69;65.28
46946;BME280;32679;40.810;14.498;2022-09-17T07:34:54;99074.16;;;26.49;67.11
46946;BME280;32679;40.810;14.498;2022-09-17T07:37:20;99074.00;;;26.38;64.56
46946;BME280;32679;40.810;14.498;2022-09-17T07:39:45;99079.31;;;26.10;65.54
46946;BME280;32679;40.810;14.498;2022-09-17T07:42:11;99081.28;;;26.04;66.28
46946;BME280;32679;40.810;14.498;2022-09-17T07:44:36;99086.06;;;25.77;67.19
46946;BME280;32679;40.810;14.498;2022-09-17T07:47:01;99085.28;;;25.77;67.99
46946;BME280;32679;40.810;14.498;2022-09-17T07:49:27;99083.88;;;25.87;67.39
46946;BME280;32679;40.810;14.498;2022-09-17T07:51:52;99086.22;;;25.89;67.15
46946;BME280;32679;40.810;14.498;2022-09-17T07:54:19;99099.78;;;25.94;65.92
46946;BME280;32679;40.810;14.498;2022-09-17T07:56:44;99103.34;;;25.74;68.27
46946;BME280;32679;40.810;14.498;2022-09-17T07:59:09;99113.06;;;25.67;68.46
46946;BME280;32679;40.810;14.498;2022-09-17T08:01:35;99117.72;;;26.15;68.51
46946;BME280;32679;40.810;14.498;2022-09-17T08:04:03;99115.72;;;26.56;66.74
46946;BME280;32679;40.810;14.498;2022-09-17T08:06:29;99115.22;;;27.71;61.56
46946;BME280;32679;40.810;14.498;2022-09-17T08:08:55;99120.00;;;28.22;59.21
46946;BME280;32679;40.810;14.498;2022-09-17T08:11:22;99126.63;;;28.34;59.40
46946;BME280;32679;40.810;14.498;2022-09-17T08:13:48;99124.69;;;28.62;58.48
46946;BME280;32679;40.810;14.498;2022-09-17T08:16:14;99119.97;;;28.59;59.50
46946;BME280;32679;40.810;14.498;2022-09-17T08:18:43;99120.94;;;28.39;57.57
46946;BME280;32679;40.810;14.498;2022-09-17T08:21:10;99122.38;;;28.24;57.70
46946;BME280;32679;40.810;14.498;2022-09-17T08:23:36;99115.63;;;27.89;58.79
46946;BME280;32679;40.810;14.498;2022-09-17T08:26:02;99129.72;;;27.99;58.53
46946;BME280;32679;40.810;14.498;2022-09-17T08:28:29;99125.44;;;28.14;59.44
46946;BME280;32679;40.810;14.498;2022-09-17T08:30:58;99132.94;;;28.49;56.72
46946;BME280;32679;40.810;14.498;2022-09-17T08:33:24;99123.31;;;28.09;55.32
46946;BME280;32679;40.810;14.498;2022-09-17T08:35:52;99125.56;;;28.00;53.83
46946;BME280;32679;40.810;14.498;2022-09-17T08:38:18;99120.78;;;28.65;50.36
46946;BME280;32679;40.810;14.498;2022-09-17T08:41:02;99116.28;;;29.07;48.61
46946;BME280;32679;40.810;14.498;2022-09-17T08:43:29;99109.41;;;29.75;47.50
46946;BME280;32679;40.810;14.498;2022-09-17T08:45:55;99094.69;;;30.52;45.93
46946;BME280;32679;40.810;14.498;2022-09-17T08:48:23;99105.56;;;30.82;44.60
46946;BME280;32679;40.810;14.498;2022-09-17T08:50:49;99106.81;;;29.83;47.80
46946;BME280;32679;40.810;14.498;2022-09-17T08:56:01;99101.16;;;30.75;44.28
46946;BME280;32679;40.810;14.498;2022-09-17T09:06:03;99100.72;;;31.12;42.32
46946;BME280;32679;40.810;14.498;2022-09-17T09:08:30;99100.84;;;32.02;41.25
46946;BME280;32679;40.810;14.498;2022-09-17T09:10:58;99098.75;;;32.03;40.25
46946;BME280;32679;40.810;14.498;2022-09-17T09:13:31;99091.66;;;31.44;40.97
46946;BME280;32679;40.810;14.498;2022-09-17T09:15:58;99093.22;;;31.80;40.55
46946;BME280;32679;40.810;14.498;2022-09-17T09:18:26;99096.31;;;31.47;41.53
46946;BME280;32679;40.810;14.498;2022-09-17T09:20:54;99100.28;;;31.44;41.44
46946;BME280;32679;40.810;14.498;2022-09-17T09:24:13;99097.78;;;30.65;43.54
46946;BME280;32679;40.810;14.498;2022-09-17T09:26:17;99089.81;;;30.94;41.69
46946;BME280;32679;40.810;14.498;2022-09-17T09:33:49;99095.81;;;31.78;39.75
46946;BME280;32679;40.810;14.498;2022-09-17T09:36:15;99094.44;;;31.55;40.95
46946;BME280;32679;40.810;14.498;2022-09-17T09:38:47;99096.03;;;31.50;40.42
46946;BME280;32679;40.810;14.498;2022-09-17T09:41:57;99101.66;;;31.32;41.16
46946;BME280;32679;40.810;14.498;2022-09-17T09:44:06;99098.38;;;31.05;41.45
46946;BME280;32679;40.810;14.498;2022-09-17T09:56:55;99102.28;;;30.44;43.33
46946;BME280;32679;40.810;14.498;2022-09-17T09:59:22;99100.91;;;30.62;42.92
46946;BME280;32679;40.810;14.498;2022-09-17T10:01:48;99094.25;;;29.92;43.85
46946;BME280;32679;40.810;14.498;2022-09-17T10:06:46;99091.38;;;30.03;44.20
46946;BME280;32679;40.810;14.498;2022-09-17T10:09:13;99090.06;;;30.04;44.84
46946;BME280;32679;40.810;14.498;2022-09-17T10:11:39;99073.81;;;30.46;43.43
46946;BME280;32679;40.810;14.498;2022-09-17T10:16:39;99077.34;;;29.99;42.59
46946;BME280;32679;40.810;14.498;2022-09-17T10:21:34;99073.88;;;29.11;43.59
46946;BME280;32679;40.810;14.498;2022-09-17T10:24:00;99079.72;;;28.74;45.11
46946;BME280;32679;40.810;14.498;2022-09-17T10:26:30;99079.00;;;28.85;45.87
46946;BME280;32679;40.810;14.498;2022-09-17T10:29:01;99077.06;;;29.36;44.95
46946;BME280;32679;40.810;14.498;2022-09-17T10:31:27;99074.34;;;28.93;46.90
46946;BME280;32679;40.810;14.498;2022-09-17T10:34:11;99085.69;;;29.81;44.97
46946;BME280;32679;40.810;14.498;2022-09-17T10:36:43;99074.72;;;29.96;42.45
46946;BME280;32679;40.810;14.498;2022-09-17T10:44:22;99085.13;;;30.27;39.49
46946;BME280;32679;40.810;14.498;2022-09-17T10:46:48;99082.81;;;29.86;40.18
46946;BME280;32679;40.810;14.498;2022-09-17T10:49:19;99080.38;;;29.06;41.63
46946;BME280;32679;40.810;14.498;2022-09-17T10:51:47;99078.91;;;28.62;43.28
46946;BME280;32679;40.810;14.498;2022-09-17T10:56:49;99079.66;;;28.57;43.74
46946;BME280;32679;40.810;14.498;2022-09-17T11:30:26;99061.31;;;28.32;43.59
46946;BME280;32679;40.810;14.498;2022-09-17T11:35:31;99042.66;;;28.37;43.23
46946;BME280;32679;40.810;14.498;2022-09-17T11:40:47;99049.34;;;28.88;44.04
46946;BME280;32679;40.810;14.498;2022-09-17T11:45:45;99046.72;;;28.84;41.53
46946;BME280;32679;40.810;14.498;2022-09-17T11:48:14;99061.31;;;28.92;40.80
46946;BME280;32679;40.810;14.498;2022-09-17T11:50:48;99058.19;;;28.90;41.49
46946;BME280;32679;40.810;14.498;2022-09-17T11:53:25;99053.44;;;28.70;41.63
46946;BME280;32679;40.810;14.498;2022-09-17T11:56:04;99045.75;;;28.39;42.64
46946;BME280;32679;40.810;14.498;2022-09-17T11:58:40;99054.44;;;28.56;42.91
46946;BME280;32679;40.810;14.498;2022-09-17T12:01:08;99043.09;;;28.24;43.85
46946;BME280;32679;40.810;14.498;2022-09-17T12:03:40;99048.03;;;28.24;44.25
46946;BME280;32679;40.810;14.498;2022-09-17T12:06:12;99061.06;;;28.30;44.38
46946;BME280;32679;40.810;14.498;2022-09-17T12:08:47;99050.22;;;28.45;44.04
46946;BME280;32679;40.810;14.498;2022-09-17T12:13:49;99061.41;;;29.14;42.86
46946;BME280;32679;40.810;14.498;2022-09-17T12:24:29;99051.44;;;28.93;40.36
46946;BME280;32679;40.810;14.498;2022-09-17T12:32:15;99049.66;;;29.01;41.56
46946;BME280;32679;40.810;14.498;2022-09-17T12:34:55;99038.66;;;28.83;41.75
46946;BME280;32679;40.810;14.498;2022-09-17T12:37:25;99038.19;;;29.01;41.77
46946;BME280;32679;40.810;14.498;2022-09-17T12:40:05;99032.22;;;28.99;40.19
46946;BME280;32679;40.810;14.498;2022-09-17T12:58:46;99016.06;;;28.31;41.45
46946;BME280;32679;40.810;14.498;2022-09-17T13:03:53;99024.59;;;28.19;42.02
46946;BME280;32679;40.810;14.498;2022-09-17T13:14:06;99024.81;;;28.64;42.53
46946;BME280;32679;40.810;14.498;2022-09-17T13:16:36;99025.81;;;28.50;43.21
46946;BME280;32679;40.810;14.498;2022-09-17T13:19:19;99030.16;;;28.34;42.59
46946;BME280;32679;40.810;14.498;2022-09-17T13:21:54;99021.44;;;28.17;43.21
46946;BME280;32679;40.810;14.498;2022-09-17T13:24:25;99021.53;;;28.29;43.47
46946;BME280;32679;40.810;14.498;2022-09-17T13:26:53;99022.63;;;28.37;43.15
46946;BME280;32679;40.810;14.498;2022-09-17T13:32:04;99029.44;;;28.45;43.05
46946;BME280;32679;40.810;14.498;2022-09-17T13:34:29;99020.03;;;28.39;41.58
46946;BME280;32679;40.810;14.498;2022-09-17T13:36:56;99035.09;;;28.34;41.62
46946;BME280;32679;40.810;14.498;2022-09-17T13:45:18;99020.94;;;28.13;40.82
46946;BME280;32679;40.810;14.498;2022-09-17T13:50:33;99028.75;;;28.18;40.34
46946;BME280;32679;40.810;14.498;2022-09-17T13:57:56;99029.22;;;28.11;40.61
46946;BME280;32679;40.810;14.498;2022-09-17T14:08:24;99045.00;;;28.01;41.13
46946;BME280;32679;40.810;14.498;2022-09-17T14:10:52;99048.75;;;27.76;41.51
46946;BME280;32679;40.810;14.498;2022-09-17T14:15:57;99066.41;;;27.74;40.90
46946;BME280;32679;40.810;14.498;2022-09-17T14:23:33;99076.72;;;27.66;39.21
46946;BME280;32679;40.810;14.498;2022-09-17T14:25:59;99070.91;;;27.55;39.26
46946;BME280;32679;40.810;14.498;2022-09-17T14:30:54;99075.34;;;27.87;39.25
46946;BME280;32679;40.810;14.498;2022-09-17T14:33:25;99073.81;;;27.92;39.35
46946;BME280;32679;40.810;14.498;2022-09-17T14:35:54;99068.91;;;27.98;39.40
46946;BME280;32679;40.810;14.498;2022-09-17T14:38:42;99063.88;;;27.82;39.33
46946;BME280;32679;40.810;14.498;2022-09-17T14:43:46;99064.59;;;27.45;40.17
46946;BME280;32679;40.810;14.498;2022-09-17T14:46:21;99078.31;;;27.15;39.26
46946;BME280;32679;40.810;14.498;2022-09-17T14:48:47;99069.09;;;27.05;39.13
46946;BME280;32679;40.810;14.498;2022-09-17T14:53:41;99072.13;;;26.96;39.63
46946;BME280;32679;40.810;14.498;2022-09-17T14:56:07;99064.28;;;26.91;40.41
46946;BME280;32679;40.810;14.498;2022-09-17T14:58:34;99070.28;;;26.73;41.20
46946;BME280;32679;40.810;14.498;2022-09-17T15:01:00;99072.72;;;26.80;41.42
46946;BME280;32679;40.810;14.498;2022-09-17T15:03:26;99071.00;;;26.68;41.52
46946;BME280;32679;40.810;14.498;2022-09-17T15:05:51;99076.81;;;26.53;41.56
46946;BME280;32679;40.810;14.498;2022-09-17T15:08:18;99070.88;;;26.56;41.93
46946;BME280;32679;40.810;14.498;2022-09-17T15:13:25;99082.59;;;26.58;42.21
46946;BME280;32679;40.810;14.498;2022-09-17T15:18:46;99089.41;;;26.46;42.25
46946;BME280;32679;40.810;14.498;2022-09-17T15:21:17;99092.00;;;26.44;42.75
46946;BME280;32679;40.810;14.498;2022-09-17T15:23:45;99093.81;;;26.27;42.72
46946;BME280;32679;40.810;14.498;2022-09-17T15:26:12;99089.66;;;26.43;42.66
46946;BME280;32679;40.810;14.498;2022-09-17T15:28:40;99094.91;;;26.50;43.21
46946;BME280;32679;40.810;14.498;2022-09-17T15:31:15;99100.13;;;26.51;42.59
46946;BME280;32679;40.810;14.498;2022-09-17T15:33:41;99102.22;;;26.36;42.59
46946;BME280;32679;40.810;14.498;2022-09-17T15:36:24;99107.38;;;26.32;42.84
46946;BME280;32679;40.810;14.498;2022-09-17T15:38:51;99096.34;;;26.25;43.36
46946;BME280;32679;40.810;14.498;2022-09-17T15:43:42;99093.66;;;26.16;43.20
46946;BME280;32679;40.810;14.498;2022-09-17T15:46:28;99101.50;;;26.21;42.65
46946;BME280;32679;40.810;14.498;2022-09-17T15:48:54;99106.16;;;26.03;42.50
46946;BME280;32679;40.810;14.498;2022-09-17T15:51:24;99094.38;;;25.96;41.86
46946;BME280;32679;40.810;14.498;2022-09-17T15:53:55;99115.13;;;25.96;42.26
46946;BME280;32679;40.810;14.498;2022-09-17T15:56:24;99110.78;;;26.01;41.87
46946;BME280;32679;40.810;14.498;2022-09-17T15:58:53;99111.75;;;26.12;41.81
46946;BME280;32679;40.810;14.498;2022-09-17T16:11:11;99115.13;;;25.81;40.79
46946;BME280;32679;40.810;14.498;2022-09-17T16:13:37;99113.88;;;25.68;41.36
46946;BME280;32679;40.810;14.498;2022-09-17T16:16:02;99118.09;;;25.43;41.47
46946;BME280;32679;40.810;14.498;2022-09-17T16:18:28;99119.25;;;25.51;41.61
46946;BME280;32679;40.810;14.498;2022-09-17T16:20:53;99119.66;;;25.44;42.28
46946;BME280;32679;40.810;14.498;2022-09-17T16:23:18;99124.47;;;25.38;43.39
46946;BME280;32679;40.810;14.498;2022-09-17T16:25:44;99125.50;;;25.11;44.11
46946;BME280;32679;40.810;14.498;2022-09-17T16:28:10;99124.91;;;25.06;44.17
46946;BME280;32679;40.810;14.498;2022-09-17T16:30:36;99109.53;;;24.89;45.53